Time;durP1;ratioP1;P1;durP2;ratioP2;P2;SDS_P1;SDS_P2;PMS_P1;PMS_P2;Temp;Humidity;BMP_temperature;BMP_pressure;BME280_temperature;BME280_humidity;BME280_pressure;Samples;Min_cycle;Max_cycle;Signal;HPM_P1;HPM_P2
2023/07/12 00:01:25;;;;;;;5.57;1.98;;;20.10;99.90;;;;;;5025020;28;20218;-77
2023/07/12 00:03:51;;;;;;;3.75;1.45;;;20.00;99.90;;;;;;5021819;28;20269;-78
2023/07/12 00:06:22;;;;;;;2.63;1.55;;;19.90;99.90;;;;;;5021383;28;20357;-79
2023/07/12 00:08:49;;;;;;;1.83;1.55;;;19.90;99.90;;;;;;5008366;28;20198;-79
2023/07/12 00:11:22;;;;;;;2.72;1.98;;;19.90;99.90;;;;;;5016048;28;20702;-80
2023/07/12 00:13:54;;;;;;;2.45;1.80;;;19.90;99.90;;;;;;5026977;28;20214;-79
2023/07/12 00:16:28;;;;;;;2.38;1.63;;;19.80;99.90;;;;;;5023960;28;20321;-78
2023/07/12 00:18:56;;;;;;;2.70;1.98;;;19.90;99.90;;;;;;5008948;28;20518;-80
2023/07/12 00:21:27;;;;;;;2.03;1.67;;;19.90;99.90;;;;;;5028730;28;20638;-80
2023/07/12 00:23:56;;;;;;;2.67;1.85;;;19.90;99.90;;;;;;5022790;28;20209;-81
2023/07/12 00:26:32;;;;;;;4.47;2.60;;;19.90;99.90;;;;;;5028261;28;20710;-79
2023/07/12 00:29:00;;;;;;;3.42;1.88;;;20.00;99.90;;;;;;5024241;28;20206;-79
2023/07/12 00:31:31;;;;;;;4.95;1.83;;;19.90;99.90;;;;;;5012138;28;20229;-78
2023/07/12 00:33:58;;;;;;;3.05;1.80;;;19.90;99.90;;;;;;5023992;28;20306;-79
2023/07/12 00:36:28;;;;;;;2.47;1.92;;;19.90;99.90;;;;;;5028461;28;20240;-78
2023/07/12 00:38:57;;;;;;;2.88;1.85;;;19.80;99.90;;;;;;5014632;28;20687;-78
2023/07/12 00:41:42;;;;;;;6.78;1.88;;;19.80;99.90;;;;;;4987240;28;20211;-80
2023/07/12 00:44:39;;;;;;;2.55;1.55;;;19.80;99.90;;;;;;4988091;28;20214;-79
2023/07/12 00:47:10;;;;;;;4.80;2.28;;;19.70;99.90;;;;;;5006207;28;20241;-78
2023/07/12 00:49:37;;;;;;;2.42;1.65;;;19.70;99.90;;;;;;4992073;28;20253;-78
2023/07/12 00:52:12;;;;;;;2.17;1.48;;;19.60;99.90;;;;;;5005304;28;20290;-80
2023/07/12 00:54:50;;;;;;;4.53;1.88;;;19.60;99.90;;;;;;5006436;28;20306;-79
2023/07/12 00:57:17;;;;;;;2.28;1.63;;;19.60;99.90;;;;;;4988562;28;20210;-78
2023/07/12 00:59:46;;;;;;;3.47;1.80;;;19.50;99.90;;;;;;4993212;28;20203;-78
2023/07/12 01:02:15;;;;;;;3.95;1.83;;;19.50;99.90;;;;;;5011944;28;20606;-80
2023/07/12 01:04:46;;;;;;;4.40;2.00;;;19.50;99.90;;;;;;4999855;28;20619;-80
2023/07/12 01:07:15;;;;;;;2.40;2.00;;;19.50;99.90;;;;;;5013304;28;20230;-81
2023/07/12 01:09:42;;;;;;;4.28;2.03;;;19.50;99.90;;;;;;5013791;28;20205;-80
2023/07/12 01:12:09;;;;;;;2.70;1.95;;;19.50;99.90;;;;;;5001842;28;20252;-79
2023/07/12 01:14:39;;;;;;;3.22;1.90;;;19.50;99.90;;;;;;4996645;28;20229;-79
2023/07/12 01:17:09;;;;;;;6.05;2.65;;;19.40;99.90;;;;;;5015622;28;20215;-81
2023/07/12 01:19:38;;;;;;;2.97;2.00;;;19.40;99.90;;;;;;5011581;28;20626;-79
2023/07/12 01:22:06;;;;;;;4.38;1.92;;;19.30;99.90;;;;;;5011570;28;20558;-79
2023/07/12 01:24:32;;;;;;;5.63;2.40;;;19.40;99.90;;;;;;5026844;28;20221;-78
2023/07/12 01:27:19;;;;;;;3.42;2.42;;;19.40;99.90;;;;;;5032627;28;20326;-79
2023/07/12 01:29:55;;;;;;;3.47;2.40;;;19.40;99.90;;;;;;5031327;28;20223;-78
2023/07/12 01:32:22;;;;;;;5.75;2.80;;;19.20;99.90;;;;;;5025770;28;20250;-78
2023/07/12 01:34:49;;;;;;;4.50;2.80;;;19.20;99.90;;;;;;5023510;28;20203;-79
2023/07/12 01:37:16;;;;;;;6.75;3.78;;;19.20;99.90;;;;;;4999504;28;20211;-78
2023/07/12 01:39:42;;;;;;;8.73;3.47;;;19.10;99.90;;;;;;5034196;28;20751;-77
2023/07/12 01:42:09;;;;;;;5.30;2.80;;;19.10;99.90;;;;;;5024000;28;20320;-78
2023/07/12 01:44:36;;;;;;;5.53;2.80;;;19.00;99.90;;;;;;5023528;28;20218;-79
2023/07/12 01:47:03;;;;;;;4.63;2.90;;;19.00;99.90;;;;;;5020275;28;20238;-79
2023/07/12 01:49:30;;;;;;;5.68;2.78;;;19.00;99.90;;;;;;5020886;28;20304;-79
2023/07/12 01:51:57;;;;;;;7.38;3.58;;;19.00;99.90;;;;;;5025336;28;20506;-80
2023/07/12 01:54:23;;;;;;;6.00;2.88;;;18.90;99.90;;;;;;5025893;28;20210;-79
2023/07/12 01:56:50;;;;;;;5.05;3.05;;;18.90;99.90;;;;;;5023522;28;20214;-78
2023/07/12 01:59:17;;;;;;;7.93;3.00;;;18.90;99.90;;;;;;5025040;28;20332;-78
2023/07/12 02:01:44;;;;;;;6.05;3.40;;;19.00;99.90;;;;;;5026785;28;20715;-78
2023/07/12 02:04:11;;;;;;;6.82;2.92;;;18.90;99.90;;;;;;5025148;28;20214;-81
2023/07/12 02:06:38;;;;;;;8.20;3.10;;;19.00;99.90;;;;;;5005444;28;20230;-81
2023/07/12 02:09:05;;;;;;;4.45;2.80;;;19.10;99.90;;;;;;5022892;28;20670;-79
2023/07/12 02:11:31;;;;;;;7.20;3.42;;;19.00;99.90;;;;;;5023947;28;20206;-79
2023/07/12 02:13:58;;;;;;;7.93;3.17;;;18.90;99.90;;;;;;5021470;28;20226;-79
2023/07/12 02:16:29;;;;;;;5.93;3.08;;;18.90;99.90;;;;;;5028846;28;20292;-79
2023/07/12 02:18:56;;;;;;;7.32;3.40;;;18.90;99.90;;;;;;5009151;28;20202;-78
2023/07/12 02:21:23;;;;;;;5.95;3.10;;;18.80;99.90;;;;;;5025955;28;20272;-80
2023/07/12 02:23:52;;;;;;;6.75;3.75;;;18.80;99.90;;;;;;5022362;28;20215;-78
2023/07/12 02:26:19;;;;;;;9.13;3.55;;;18.70;99.90;;;;;;5022594;28;20706;-76
2023/07/12 02:28:46;;;;;;;10.30;3.45;;;18.70;99.90;;;;;;5018107;28;20211;-77
2023/07/12 02:31:17;;;;;;;6.40;3.17;;;18.70;99.90;;;;;;5009071;28;20254;-77
2023/07/12 02:33:44;;;;;;;7.57;3.47;;;18.70;99.90;;;;;;5006539;28;20666;-76
2023/07/12 02:36:10;;;;;;;8.27;3.17;;;18.60;99.90;;;;;;5023769;28;20300;-76
2023/07/12 02:38:37;;;;;;;4.45;3.03;;;18.60;99.90;;;;;;5008577;28;20281;-77
2023/07/12 02:41:07;;;;;;;6.85;3.20;;;18.60;99.90;;;;;;5001643;28;20210;-77
2023/07/12 02:43:35;;;;;;;5.40;2.75;;;18.60;99.90;;;;;;5001503;28;20270;-76
2023/07/12 02:46:03;;;;;;;8.15;2.90;;;18.40;99.90;;;;;;5000309;28;20226;-77
2023/07/12 02:48:30;;;;;;;9.10;2.97;;;18.30;99.90;;;;;;5000454;28;20239;-77
2023/07/12 02:50:56;;;;;;;8.07;3.67;;;18.20;99.90;;;;;;4998892;28;20264;-76
2023/07/12 02:53:23;;;;;;;6.53;3.80;;;18.30;99.90;;;;;;5004144;28;20323;-76
2023/07/12 02:55:50;;;;;;;5.00;2.88;;;18.30;99.90;;;;;;5003152;28;20642;-77
2023/07/12 02:58:18;;;;;;;5.60;2.78;;;18.20;99.90;;;;;;5004003;28;20218;-77
2023/07/12 03:00:45;;;;;;;7.75;2.95;;;18.20;99.90;;;;;;4998799;28;20215;-77
2023/07/12 03:03:12;;;;;;;9.57;3.45;;;18.20;99.90;;;;;;5004947;28;20243;-77
2023/07/12 03:05:40;;;;;;;4.75;2.65;;;18.20;99.90;;;;;;5004444;28;20198;-77
2023/07/12 03:08:07;;;;;;;5.47;2.85;;;18.10;99.90;;;;;;5001415;28;20222;-79
2023/07/12 03:10:37;;;;;;;8.82;3.03;;;18.10;99.90;;;;;;5003499;28;20199;-77
2023/07/12 03:13:05;;;;;;;8.52;3.10;;;18.10;99.90;;;;;;5006918;28;20226;-77
2023/07/12 03:15:36;;;;;;;5.78;3.08;;;18.20;99.90;;;;;;5005412;28;20207;-78
2023/07/12 03:18:04;;;;;;;8.40;3.72;;;18.00;99.90;;;;;;5006065;28;20671;-77
2023/07/12 03:20:33;;;;;;;6.95;2.88;;;18.00;99.90;;;;;;5003015;28;20298;-76
2023/07/12 03:23:01;;;;;;;5.50;2.72;;;18.00;99.90;;;;;;5010628;28;20213;-77
2023/07/12 03:25:27;;;;;;;11.55;3.67;;;18.10;99.90;;;;;;5006450;28;20211;-76
2023/07/12 03:27:54;;;;;;;4.50;2.65;;;18.10;99.90;;;;;;5009446;28;20268;-78
2023/07/12 03:30:21;;;;;;;8.90;3.67;;;18.10;99.90;;;;;;5002900;28;20215;-77
2023/07/12 03:32:48;;;;;;;6.03;3.60;;;18.10;99.90;;;;;;5002248;28;20329;-77
2023/07/12 03:35:15;;;;;;;6.25;3.22;;;18.00;99.90;;;;;;4998624;28;20239;-77
2023/07/12 03:37:42;;;;;;;7.40;3.40;;;18.00;99.90;;;;;;5006782;28;20580;-78
2023/07/12 03:40:09;;;;;;;8.48;3.78;;;18.00;99.90;;;;;;5011263;28;20209;-76
2023/07/12 03:42:36;;;;;;;7.78;4.07;;;17.90;99.90;;;;;;5027654;28;20234;-77
2023/07/12 03:45:03;;;;;;;7.78;3.53;;;17.90;99.90;;;;;;5022756;28;20241;-77
2023/07/12 03:47:30;;;;;;;8.27;3.67;;;17.90;99.90;;;;;;5024775;28;20698;-80
2023/07/12 03:49:57;;;;;;;8.60;3.50;;;17.90;99.90;;;;;;5025202;28;20207;-80
2023/07/12 03:52:24;;;;;;;8.63;3.83;;;17.90;99.90;;;;;;5027964;28;20569;-80
2023/07/12 03:54:51;;;;;;;8.07;4.10;;;18.00;99.90;;;;;;5026690;28;20197;-79
2023/07/12 03:57:18;;;;;;;7.30;4.35;;;17.80;99.90;;;;;;5028628;28;20218;-79
2023/07/12 03:59:45;;;;;;;7.00;3.70;;;17.90;99.90;;;;;;5008102;28;20236;-78
2023/07/12 04:02:12;;;;;;;7.63;3.92;;;18.00;99.90;;;;;;5026182;28;20207;-78
2023/07/12 04:04:38;;;;;;;8.52;4.68;;;17.90;99.90;;;;;;5022936;28;20207;-79
2023/07/12 04:07:05;;;;;;;7.80;3.78;;;17.90;99.90;;;;;;5028765;28;20226;-78
2023/07/12 04:09:32;;;;;;;9.05;4.50;;;18.00;99.90;;;;;;5020713;28;20234;-77
2023/07/12 04:11:59;;;;;;;10.18;4.50;;;17.90;99.90;;;;;;5020893;28;20526;-77
2023/07/12 04:14:26;;;;;;;8.13;4.70;;;17.90;99.90;;;;;;5005334;28;20214;-78
2023/07/12 04:16:52;;;;;;;10.15;4.97;;;17.90;99.90;;;;;;5009458;28;20194;-78
2023/07/12 04:19:22;;;;;;;9.35;4.70;;;18.00;99.90;;;;;;5027821;28;20198;-79
2023/07/12 04:21:49;;;;;;;7.95;4.78;;;17.90;99.90;;;;;;5029059;28;20213;-77
2023/07/12 04:24:16;;;;;;;10.27;5.15;;;18.00;99.90;;;;;;5029606;28;20218;-78
2023/07/12 04:26:42;;;;;;;10.98;6.35;;;18.00;99.90;;;;;;5027108;28;20249;-78
2023/07/12 04:29:09;;;;;;;11.18;5.45;;;17.90;99.90;;;;;;5029778;28;20264;-78
2023/07/12 04:31:36;;;;;;;11.18;5.70;;;17.90;99.90;;;;;;5027501;28;20581;-78
2023/07/12 04:34:03;;;;;;;11.55;6.40;;;18.00;99.90;;;;;;5030167;28;20210;-78
2023/07/12 04:36:32;;;;;;;13.88;5.78;;;18.00;99.90;;;;;;5030194;28;20220;-77
2023/07/12 04:38:58;;;;;;;12.48;6.63;;;18.00;99.90;;;;;;5024738;28;20237;-78
2023/07/12 04:41:25;;;;;;;13.15;6.57;;;18.00;99.90;;;;;;5030101;28;20225;-78
2023/07/12 04:43:52;;;;;;;10.02;6.30;;;18.10;99.90;;;;;;5012654;28;20229;-79
2023/07/12 04:46:19;;;;;;;12.50;7.00;;;18.00;99.90;;;;;;5030253;28;20296;-78
2023/07/12 04:48:46;;;;;;;11.32;7.43;;;18.10;99.90;;;;;;5026903;28;20213;-78
2023/07/12 04:51:12;;;;;;;16.65;7.90;;;18.00;99.90;;;;;;5025697;28;20221;-80
2023/07/12 04:53:41;;;;;;;11.88;8.45;;;18.20;99.90;;;;;;5012651;28;20218;-78
2023/07/12 04:56:08;;;;;;;11.82;7.47;;;18.30;99.90;;;;;;5025615;28;20210;-78
2023/07/12 04:58:37;;;;;;;15.45;7.95;;;18.10;99.90;;;;;;5015651;28;20214;-78
2023/07/12 05:01:04;;;;;;;11.45;7.47;;;18.10;99.90;;;;;;5020202;28;20281;-79
2023/07/12 05:03:31;;;;;;;12.93;7.80;;;18.10;99.90;;;;;;5017495;28;20650;-79
2023/07/12 05:05:59;;;;;;;16.92;8.25;;;18.10;99.90;;;;;;5025697;28;20241;-79
2023/07/12 05:08:43;;;;;;;12.30;7.95;;;17.90;99.90;;;;;;5025950;28;20297;-82
2023/07/12 05:11:09;;;;;;;15.02;7.55;;;18.00;99.90;;;;;;5012172;28;20693;-80
2023/07/12 05:13:37;;;;;;;16.85;8.40;;;17.90;99.90;;;;;;5027951;28;20201;-80
2023/07/12 05:16:04;;;;;;;10.70;7.63;;;18.00;99.90;;;;;;5018035;28;20214;-83
2023/07/12 05:18:33;;;;;;;13.45;7.53;;;18.00;99.90;;;;;;5026472;28;20212;-80
2023/07/12 05:21:00;;;;;;;14.15;7.70;;;18.10;99.90;;;;;;5021694;28;20201;-80
2023/07/12 05:23:27;;;;;;;13.98;7.80;;;18.10;99.90;;;;;;5024335;28;20198;-81
2023/07/12 05:25:55;;;;;;;13.05;7.80;;;18.10;99.90;;;;;;5027027;28;20213;-82
2023/07/12 05:28:22;;;;;;;16.63;8.25;;;18.10;99.90;;;;;;5010262;28;20230;-80
2023/07/12 05:30:49;;;;;;;14.50;7.55;;;18.10;99.90;;;;;;5023648;28;20216;-82
2023/07/12 05:33:16;;;;;;;12.98;7.70;;;18.10;99.90;;;;;;5013152;28;20206;-82
2023/07/12 05:35:45;;;;;;;10.60;7.80;;;18.10;99.90;;;;;;5016581;28;20210;-83
2023/07/12 05:38:12;;;;;;;12.73;8.40;;;18.30;99.90;;;;;;5025408;28;20230;-85
2023/07/12 05:40:39;;;;;;;11.70;8.00;;;18.40;99.90;;;;;;5010036;28;20696;-85
2023/07/12 05:43:06;;;;;;;11.93;7.60;;;18.40;99.90;;;;;;5026074;28;20214;-85
2023/07/12 05:45:33;;;;;;;11.43;7.40;;;18.50;99.90;;;;;;5023823;28;20210;-84
2023/07/12 05:47:59;;;;;;;12.45;7.72;;;18.50;99.90;;;;;;5005564;28;20272;-83
2023/07/12 05:50:27;;;;;;;12.60;7.68;;;18.60;99.90;;;;;;5027145;28;20205;-83
2023/07/12 05:52:53;;;;;;;13.27;7.72;;;18.60;99.90;;;;;;5024402;28;20289;-84
2023/07/12 05:55:20;;;;;;;12.27;7.88;;;18.60;99.90;;;;;;5023223;28;20682;-87
2023/07/12 05:57:48;;;;;;;14.13;8.70;;;18.70;99.90;;;;;;4999042;28;20231;-84
2023/07/12 06:00:17;;;;;;;13.30;8.68;;;18.70;99.90;;;;;;5005396;28;20198;-83
2023/07/12 06:02:45;;;;;;;11.15;8.00;;;18.90;99.90;;;;;;5011227;28;20587;-85
2023/07/12 06:05:12;;;;;;;12.20;7.97;;;19.30;99.90;;;;;;5008987;28;20297;-81
2023/07/12 06:07:39;;;;;;;11.98;7.50;;;19.50;99.90;;;;;;5020676;28;20237;-83
2023/07/12 06:10:06;;;;;;;12.13;7.85;;;19.60;99.90;;;;;;5025194;28;20715;-82
2023/07/12 06:12:33;;;;;;;10.80;7.30;;;19.50;99.90;;;;;;5020057;28;20233;-81
2023/07/12 06:15:04;;;;;;;11.38;7.50;;;19.50;99.90;;;;;;5004413;28;20205;-81
2023/07/12 06:17:31;;;;;;;14.43;8.05;;;19.40;99.90;;;;;;5003006;28;20661;-81
2023/07/12 06:20:01;;;;;;;12.25;7.70;;;19.50;99.90;;;;;;5022056;28;20236;-81
2023/07/12 06:22:28;;;;;;;11.40;7.65;;;19.40;99.90;;;;;;5003271;28;20214;-80
2023/07/12 06:24:55;;;;;;;12.32;7.55;;;19.40;99.90;;;;;;5019767;28;20279;-81
2023/07/12 06:27:21;;;;;;;10.85;6.97;;;19.50;99.90;;;;;;5019380;28;20238;-79
2023/07/12 06:29:48;;;;;;;10.10;6.90;;;19.60;99.90;;;;;;5022877;28;20682;-82
2023/07/12 06:32:16;;;;;;;10.05;6.68;;;19.70;99.90;;;;;;5003684;28;20289;-84
2023/07/12 06:34:43;;;;;;;13.40;6.72;;;19.80;99.90;;;;;;5006527;28;20241;-82
2023/07/12 06:37:10;;;;;;;17.45;7.15;;;19.80;99.90;;;;;;5024514;28;20279;-82
2023/07/12 06:39:37;;;;;;;12.02;6.80;;;19.80;99.90;;;;;;5020631;28;20709;-82
2023/07/12 06:42:04;;;;;;;11.23;6.70;;;19.80;99.90;;;;;;5026682;28;20214;-82
2023/07/12 06:44:31;;;;;;;10.80;6.18;;;19.80;99.90;;;;;;5025145;28;20662;-83
2023/07/12 06:46:59;;;;;;;11.15;6.43;;;19.70;99.90;;;;;;5009104;28;20220;-84
2023/07/12 06:49:25;;;;;;;9.75;6.00;;;19.60;99.90;;;;;;5005498;28;20226;-83
2023/07/12 06:51:52;;;;;;;10.77;6.10;;;19.40;99.90;;;;;;5019013;28;20194;-84
2023/07/12 06:54:19;;;;;;;9.50;6.28;;;19.50;99.90;;;;;;5020917;28;20670;-81
2023/07/12 06:56:48;;;;;;;11.88;6.65;;;19.50;99.90;;;;;;5019837;28;20218;-83
2023/07/12 06:59:15;;;;;;;10.13;5.95;;;19.60;99.90;;;;;;5021631;28;20631;-81
2023/07/12 07:01:42;;;;;;;8.98;5.68;;;19.80;99.90;;;;;;5010424;28;20198;-80
2023/07/12 07:04:09;;;;;;;12.80;6.60;;;19.90;99.90;;;;;;5024573;28;20225;-80
2023/07/12 07:06:36;;;;;;;9.82;5.68;;;20.00;99.90;;;;;;5023635;28;20210;-78
2023/07/12 07:09:02;;;;;;;12.27;5.93;;;19.90;99.90;;;;;;5010692;28;20209;-80
2023/07/12 07:11:29;;;;;;;11.23;6.10;;;20.00;99.90;;;;;;5027447;28;20205;-78
2023/07/12 07:13:56;;;;;;;11.05;5.65;;;19.90;99.90;;;;;;5018495;28;20210;-79
2023/07/12 07:16:24;;;;;;;10.00;5.03;;;19.80;99.90;;;;;;5013342;28;20198;-83
2023/07/12 07:18:51;;;;;;;9.95;5.68;;;19.80;99.90;;;;;;5012146;28;20320;-82
2023/07/12 07:21:18;;;;;;;12.05;5.80;;;19.90;99.90;;;;;;5027047;28;20214;-82
2023/07/12 07:23:48;;;;;;;10.00;5.30;;;19.90;99.90;;;;;;5028585;28;20210;-82
2023/07/12 07:26:15;;;;;;;12.00;5.97;;;20.00;99.90;;;;;;5033474;28;20215;-84
2023/07/12 07:28:44;;;;;;;10.35;5.38;;;19.90;99.90;;;;;;5018805;28;20716;-84
2023/07/12 07:31:14;;;;;;;8.43;5.55;;;19.90;99.90;;;;;;5014245;28;20217;-84
2023/07/12 07:33:41;;;;;;;9.02;5.80;;;19.80;99.90;;;;;;5028038;28;20210;-82
2023/07/12 07:36:12;;;;;;;11.82;5.50;;;19.90;99.90;;;;;;5033094;28;20214;-83
2023/07/12 07:38:39;;;;;;;9.68;5.32;;;20.20;99.90;;;;;;5035863;28;20258;-79
2023/07/12 07:41:11;;;;;;;10.65;5.07;;;20.50;99.90;;;;;;5029927;28;20297;-79
2023/07/12 07:43:41;;;;;;;8.45;5.32;;;20.70;99.90;;;;;;5029428;28;20206;-79
2023/07/12 07:46:09;;;;;;;10.90;4.55;;;20.80;99.90;;;;;;5011344;28;20206;-81
2023/07/12 07:48:37;;;;;;;9.02;4.70;;;21.00;99.90;;;;;;5026407;28;20226;-78
2023/07/12 07:51:06;;;;;;;7.45;5.10;;;21.10;99.90;;;;;;5024185;28;20246;-80
2023/07/12 07:53:33;;;;;;;9.23;4.50;;;21.10;99.90;;;;;;5031590;28;20305;-79
2023/07/12 07:56:00;;;;;;;10.05;4.18;;;21.00;99.90;;;;;;5028211;28;20202;-79
2023/07/12 07:58:27;;;;;;;6.65;4.20;;;20.90;99.90;;;;;;5030809;28;20213;-78
2023/07/12 08:00:54;;;;;;;8.20;4.03;;;20.90;99.90;;;;;;5019298;28;20202;-80
2023/07/12 08:03:20;;;;;;;12.35;4.00;;;21.10;99.90;;;;;;5028555;28;20209;-80
2023/07/12 08:05:48;;;;;;;9.30;4.47;;;21.30;99.90;;;;;;5030648;28;20895;-80
2023/07/12 08:08:15;;;;;;;9.88;4.32;;;21.80;99.90;;;;;;5026028;28;20591;-80
2023/07/12 08:10:42;;;;;;;7.88;3.58;;;22.00;99.90;;;;;;5026710;28;20198;-80
2023/07/12 08:13:12;;;;;;;9.85;4.18;;;22.20;99.90;;;;;;5032533;28;20244;-82
2023/07/12 08:15:40;;;;;;;7.70;4.07;;;22.30;99.90;;;;;;5015955;28;20233;-81
2023/07/12 08:18:10;;;;;;;7.63;4.18;;;22.20;99.90;;;;;;5030158;28;20198;-82
2023/07/12 08:20:39;;;;;;;6.00;4.10;;;22.00;99.90;;;;;;5026902;28;20265;-79
2023/07/12 08:23:08;;;;;;;7.13;3.72;;;21.90;99.90;;;;;;5014707;28;20266;-81
2023/07/12 08:25:35;;;;;;;6.65;3.75;;;21.60;99.90;;;;;;5031219;28;20296;-84
2023/07/12 08:28:02;;;;;;;6.70;3.42;;;21.60;99.90;;;;;;5028580;28;20616;-82
2023/07/12 08:30:29;;;;;;;9.60;3.80;;;21.80;99.90;;;;;;5023921;28;20209;-78
2023/07/12 08:32:55;;;;;;;7.45;3.55;;;21.80;99.90;;;;;;5012112;28;20221;-82
2023/07/12 08:35:22;;;;;;;6.40;3.33;;;21.70;99.90;;;;;;5029700;28;20277;-80
2023/07/12 08:38:03;;;;;;;7.57;3.60;;;21.80;99.90;;;;;;5027472;28;20724;-80
2023/07/12 08:40:30;;;;;;;7.10;3.45;;;22.20;99.90;;;;;;5011001;28;20217;-83
2023/07/12 08:42:59;;;;;;;5.75;3.00;;;22.30;99.90;;;;;;5027787;28;20218;-81
2023/07/12 08:45:32;;;;;;;6.70;3.00;;;22.60;99.90;;;;;;5030234;28;20577;-82
2023/07/12 08:48:14;;;;;;;6.28;3.17;;;23.10;99.90;;;;;;5032799;28;20225;-82
2023/07/12 08:50:44;;;;;;;5.75;2.88;;;23.80;99.90;;;;;;5028779;28;20205;-78
2023/07/12 08:53:15;;;;;;;6.18;2.53;;;24.30;99.90;;;;;;5046740;28;20249;-80
2023/07/12 08:55:42;;;;;;;5.68;3.33;;;24.60;99.90;;;;;;5050688;28;20456;-80
2023/07/12 08:58:23;;;;;;;8.57;2.90;;;24.90;99.90;;;;;;5035361;28;20198;-78
2023/07/12 09:01:00;;;;;;;5.32;2.33;;;25.10;99.90;;;;;;5038407;28;20331;-79
2023/07/12 09:03:27;;;;;;;6.00;2.90;;;24.80;99.90;;;;;;5018163;28;20267;-81
2023/07/12 09:05:54;;;;;;;8.63;2.85;;;24.50;99.90;;;;;;5016300;28;20213;-84
2023/07/12 09:08:37;;;;;;;7.55;3.08;;;24.40;99.90;;;;;;5012069;28;20718;-86
2023/07/12 09:11:15;;;;;;;5.22;2.40;;;24.40;99.90;;;;;;5006940;28;20202;-81
2023/07/12 09:13:46;;;;;;;6.30;2.60;;;24.50;99.90;;;;;;5008616;28;20206;-81
2023/07/12 09:16:29;;;;;;;5.13;2.72;;;24.60;99.90;;;;;;5028696;28;20252;-81
2023/07/12 09:19:00;;;;;;;7.05;3.60;;;24.60;99.90;;;;;;5017472;28;20220;-82
2023/07/12 09:21:32;;;;;;;6.47;2.83;;;24.30;99.90;;;;;;5042349;28;20198;-82
2023/07/12 09:24:05;;;;;;;7.28;2.97;;;24.30;99.90;;;;;;5037963;28;20206;-80
2023/07/12 09:26:32;;;;;;;5.75;3.05;;;24.60;99.90;;;;;;5038445;28;20232;-79
2023/07/12 09:29:14;;;;;;;7.25;2.63;;;24.90;99.90;;;;;;5027753;28;20233;-82
2023/07/12 09:31:44;;;;;;;5.78;2.60;;;25.10;99.90;;;;;;5023199;28;20289;-84
2023/07/12 09:34:36;;;;;;;4.47;2.40;;;25.20;99.90;;;;;;5025010;28;20202;-84
2023/07/12 09:37:04;;;;;;;7.45;2.85;;;25.40;99.90;;;;;;5015998;28;20202;-84
2023/07/12 09:39:31;;;;;;;5.60;2.30;;;25.20;99.90;;;;;;4994037;28;20353;-83
2023/07/12 09:42:02;;;;;;;4.60;2.60;;;25.00;99.90;;;;;;5004792;28;20300;-81
2023/07/12 09:44:32;;;;;;;8.00;2.88;;;24.60;99.90;;;;;;5009010;28;20207;-80
2023/07/12 09:47:29;;;;;;;4.53;2.55;;;24.60;99.90;;;;;;4989907;28;20275;-80
2023/07/12 09:50:26;;;;;;;7.53;2.35;;;24.80;99.90;;;;;;5005935;28;20215;-79
2023/07/12 09:53:11;;;;;;;6.85;2.55;;;24.90;99.90;;;;;;5004622;28;20211;-80
2023/07/12 09:55:58;;;;;;;5.88;2.70;;;24.80;99.90;;;;;;4991441;28;20209;-80
2023/07/12 09:58:37;;;;;;;5.03;3.08;;;24.40;99.90;;;;;;5005309;28;20235;-80
2023/07/12 10:01:22;;;;;;;5.47;2.95;;;24.30;99.90;;;;;;5001696;28;20214;-81
2023/07/12 10:03:56;;;;;;;5.18;2.30;;;24.00;99.90;;;;;;5007477;28;20202;-79
2023/07/12 10:06:32;;;;;;;6.65;2.45;;;24.10;99.90;;;;;;5002066;28;20212;-80
2023/07/12 10:09:27;;;;;;;5.72;2.78;;;24.50;99.90;;;;;;5001848;28;20331;-80
2023/07/12 10:12:06;;;;;;;9.13;2.88;;;25.10;99.90;;;;;;5005853;28;20218;-81
2023/07/12 10:14:39;;;;;;;5.65;2.92;;;25.10;99.90;;;;;;5000684;28;20202;-80
2023/07/12 10:17:12;;;;;;;7.63;2.40;;;25.10;99.90;;;;;;5003207;28;20294;-80
2023/07/12 10:19:41;;;;;;;5.22;2.70;;;24.70;99.90;;;;;;5001883;28;20690;-81
2023/07/12 10:22:19;;;;;;;5.82;2.22;;;24.80;99.90;;;;;;5005090;28;20707;-81
2023/07/12 10:24:50;;;;;;;7.50;2.58;;;24.70;99.90;;;;;;5001116;28;20206;-79
2023/07/12 10:27:23;;;;;;;5.80;2.83;;;24.50;99.90;;;;;;5010564;28;20216;-79
2023/07/12 10:30:21;;;;;;;9.85;3.28;;;24.30;99.90;;;;;;5004347;28;20581;-78
2023/07/12 10:33:08;;;;;;;7.80;3.13;;;23.70;99.90;;;;;;5007308;28;20229;-78
2023/07/12 10:35:48;;;;;;;10.30;3.60;;;23.20;99.90;;;;;;5004447;28;20301;-78
2023/07/12 10:38:20;;;;;;;9.63;3.78;;;22.70;99.90;;;;;;5009857;28;20230;-80
2023/07/12 10:40:56;;;;;;;4.88;3.30;;;22.40;99.90;;;;;;5023360;28;20213;-79
2023/07/12 10:43:32;;;;;;;8.93;3.42;;;22.30;99.90;;;;;;5026733;28;20229;-80
2023/07/12 10:46:10;;;;;;;5.30;3.50;;;22.20;99.90;;;;;;5025919;28;20205;-78
2023/07/12 10:48:41;;;;;;;12.68;4.88;;;22.20;99.90;;;;;;5022772;28;20240;-76
2023/07/12 10:51:35;;;;;;;11.30;3.13;;;22.10;99.90;;;;;;5021504;28;20650;-76
2023/07/12 10:54:03;;;;;;;5.25;3.33;;;21.90;99.90;;;;;;5024715;28;20225;-74
2023/07/12 10:56:34;;;;;;;7.38;3.22;;;21.60;99.90;;;;;;5023481;28;20609;-75
2023/07/12 10:59:21;;;;;;;6.78;2.80;;;21.50;99.90;;;;;;5006964;28;20580;-79
2023/07/12 11:01:52;;;;;;;7.97;3.25;;;21.30;99.90;;;;;;5021300;28;20578;-77
2023/07/12 11:04:31;;;;;;;11.15;3.70;;;21.40;99.90;;;;;;5022773;28;20240;-78
2023/07/12 11:07:06;;;;;;;7.40;3.72;;;21.40;99.90;;;;;;5018378;28;20210;-78
2023/07/12 11:09:43;;;;;;;7.63;3.92;;;21.50;99.90;;;;;;5023100;28;20235;-79
2023/07/12 11:12:30;;;;;;;8.95;2.88;;;21.80;99.90;;;;;;5003576;28;20230;-78
2023/07/12 11:15:06;;;;;;;6.40;3.20;;;22.00;99.90;;;;;;5009385;28;20236;-78
2023/07/12 11:18:20;;;;;;;8.15;3.22;;;22.00;99.90;;;;;;5018855;28;20237;-79
2023/07/12 11:21:24;;;;;;;5.75;3.20;;;22.20;99.90;;;;;;5017039;28;20261;-78
2023/07/12 11:23:52;;;;;;;6.82;3.33;;;22.40;99.90;;;;;;5025819;28;20624;-78
2023/07/12 11:26:33;;;;;;;6.32;3.17;;;22.50;99.90;;;;;;5008629;28;20202;-77
2023/07/12 11:29:34;;;;;;;5.93;3.25;;;22.60;99.90;;;;;;5009380;28;20229;-80
2023/07/12 11:32:04;;;;;;;4.40;3.05;;;22.70;99.90;;;;;;4984607;28;20202;-77
2023/07/12 11:34:36;;;;;;;6.60;3.20;;;22.60;99.90;;;;;;5005196;28;20203;-78
2023/07/12 11:37:05;;;;;;;6.80;3.05;;;22.50;99.90;;;;;;5009953;28;20206;-79
2023/07/12 11:39:32;;;;;;;9.40;3.42;;;22.50;99.90;;;;;;4990620;28;20298;-79
2023/07/12 11:42:08;;;;;;;6.78;3.40;;;22.00;99.90;;;;;;4999541;28;20835;-79
2023/07/12 11:44:35;;;;;;;4.38;3.30;;;22.10;99.90;;;;;;5001642;28;20207;-81
2023/07/12 11:47:02;;;;;;;7.30;3.30;;;22.10;99.90;;;;;;4984444;28;20306;-78
2023/07/12 11:49:30;;;;;;;8.13;3.53;;;22.00;99.90;;;;;;5000956;28;20281;-78
2023/07/12 11:52:02;;;;;;;5.97;3.30;;;22.00;99.90;;;;;;5001429;28;20207;-79
2023/07/12 11:54:36;;;;;;;7.60;3.13;;;22.00;99.90;;;;;;5001764;28;20659;-79
2023/07/12 11:57:05;;;;;;;8.05;2.90;;;22.10;99.90;;;;;;5005647;28;20211;-79
2023/07/12 11:59:36;;;;;;;6.07;2.65;;;22.10;99.90;;;;;;5000274;28;20213;-80
2023/07/12 12:02:09;;;;;;;7.65;2.88;;;22.40;99.90;;;;;;5005899;28;20635;-80
2023/07/12 12:04:37;;;;;;;5.22;2.78;;;22.80;99.90;;;;;;5007304;28;20211;-79
2023/07/12 12:07:32;;;;;;;4.00;2.40;;;23.30;99.90;;;;;;5010747;28;20218;-80
2023/07/12 12:09:59;;;;;;;7.80;2.28;;;23.60;99.90;;;;;;5007560;28;20226;-79
2023/07/12 12:12:32;;;;;;;5.18;2.45;;;24.10;99.90;;;;;;5005856;28;20207;-80
2023/07/12 12:15:00;;;;;;;3.30;2.50;;;24.10;99.90;;;;;;5006744;28;20203;-80
2023/07/12 12:17:32;;;;;;;7.95;2.53;;;24.00;99.90;;;;;;5008815;28;20207;-81
2023/07/12 12:20:18;;;;;;;10.55;4.03;;;23.80;99.90;;;;;;5007027;28;20672;-78
2023/07/12 12:23:04;;;;;;;6.38;2.72;;;23.60;99.90;;;;;;5008030;28;20614;-75
2023/07/12 12:25:31;;;;;;;4.82;2.85;;;23.40;99.90;;;;;;5007483;28;20268;-76
2023/07/12 12:28:03;;;;;;;5.70;2.47;;;23.10;99.90;;;;;;4993820;28;20600;-77
2023/07/12 12:30:32;;;;;;;6.32;2.67;;;23.00;99.90;;;;;;5008611;28;20218;-77
2023/07/12 12:33:19;;;;;;;5.50;2.47;;;23.10;99.90;;;;;;5008809;28;20210;-78
2023/07/12 12:35:47;;;;;;;4.88;2.50;;;23.10;99.90;;;;;;5008002;28;20230;-80
2023/07/12 12:38:21;;;;;;;7.38;2.92;;;23.10;99.90;;;;;;4996295;28;20229;-79
2023/07/12 12:41:20;;;;;;;4.00;2.53;;;23.00;99.90;;;;;;5003298;28;20207;-81
2023/07/12 12:44:05;;;;;;;8.38;2.70;;;23.10;99.90;;;;;;4991842;28;20628;-80
2023/07/12 12:46:32;;;;;;;7.53;2.47;;;23.00;99.90;;;;;;5022136;28;20341;-81
2023/07/12 12:49:03;;;;;;;4.85;2.53;;;23.00;99.90;;;;;;5005596;28;20230;-80
2023/07/12 12:51:55;;;;;;;5.25;2.35;;;23.10;99.90;;;;;;5005934;28;20305;-79
2023/07/12 12:54:25;;;;;;;5.70;2.33;;;23.10;99.90;;;;;;5001553;28;20217;-79
2023/07/12 12:56:52;;;;;;;5.43;2.72;;;23.20;99.90;;;;;;5002486;28;20273;-80
2023/07/12 12:59:22;;;;;;;3.83;2.45;;;23.20;99.90;;;;;;5004762;28;20210;-80
2023/07/12 13:01:52;;;;;;;6.15;2.72;;;23.00;99.90;;;;;;5010844;28;20218;-82